Time;durP1;ratioP1;P1;durP2;ratioP2;P2;SDS_P1;SDS_P2;PMS_P1;PMS_P2;Temp;Humidity;BMP_temperature;BMP_pressure;BME280_temperature;BME280_humidity;BME280_pressure;Samples;Min_cycle;Max_cycle;Signal;HPM_P1;HPM_P2
2023/10/07 05:51:26;;;;;;;;;9.50;6.75;;;;;22.63;45.06;102145.72;5113390;27;45231;-53
2023/10/07 05:53:51;;;;;;;;;9.00;9.00;;;;;22.92;44.13;102137.22;5096208;27;45394;-51
2023/10/07 05:56:17;;;;;;;;;8.50;8.50;;;;;23.21;43.49;102144.09;5096345;27;45326;-52
2023/10/07 05:58:46;;;;;;;;;16.75;11.75;;;;;23.34;43.08;102141.25;5097177;27;45504;-52
2023/10/07 06:01:12;;;;;;;;;10.75;9.25;;;;;23.45;42.60;102140.44;5096251;27;46057;-52
2023/10/07 06:03:38;;;;;;;;;10.00;10.00;;;;;23.53;42.27;102141.63;5096362;27;45348;-55
2023/10/07 06:06:04;;;;;;;;;13.25;10.00;;;;;23.61;42.52;102139.16;5096109;27;45243;-51
2023/10/07 06:08:32;;;;;;;;;12.25;11.00;;;;;23.68;41.69;102134.94;5096346;27;45350;-51
2023/10/07 06:10:57;;;;;;;;;11.50;10.00;;;;;23.89;41.27;102143.31;5095750;27;46089;-50
2023/10/07 06:13:23;;;;;;;;;8.00;8.00;;;;;23.99;41.76;102138.81;5095675;27;45292;-50
2023/10/07 06:15:49;;;;;;;;;12.50;9.50;;;;;24.02;41.30;102137.72;5096969;27;45307;-62
2023/10/07 06:18:18;;;;;;;;;9.50;8.50;;;;;24.06;41.40;102129.13;5096220;27;45439;-61
2023/10/07 06:20:46;;;;;;;;;10.25;9.75;;;;;24.18;40.79;102134.59;5095191;27;45437;-62
2023/10/07 06:23:15;;;;;;;;;9.25;9.00;;;;;24.20;40.75;102140.84;5095270;27;45388;-63
2023/10/07 06:25:50;;;;;;;;;10.00;8.00;;;;;24.28;40.66;102144.72;5095367;27;45184;-63
2023/10/07 06:28:30;;;;;;;;;11.50;10.50;;;;;24.32;40.81;102148.97;5096070;27;45979;-61
2023/10/07 06:31:13;;;;;;;;;12.25;11.50;;;;;24.40;40.50;102134.66;5096151;27;46007;-62
2023/10/07 06:33:41;;;;;;;;;5.25;5.25;;;;;24.41;40.24;102145.47;5095815;27;45488;-62
2023/10/07 06:36:10;;;;;;;;;10.25;8.50;;;;;24.56;40.39;102147.97;5096180;27;45369;-63
2023/10/07 06:38:37;;;;;;;;;8.00;8.00;;;;;24.65;39.85;102142.59;5095787;27;45436;-62
2023/10/07 06:41:13;;;;;;;;;8.75;8.75;;;;;24.70;40.05;102132.09;5095630;27;45468;-63
2023/10/07 06:43:42;;;;;;;;;8.50;8.50;;;;;24.65;40.21;102142.59;5102690;27;45382;-62
2023/10/07 06:46:11;;;;;;;;;8.00;8.00;;;;;24.63;39.89;102146.44;5095741;27;45276;-62
2023/10/07 06:48:37;;;;;;;;;5.50;5.50;;;;;24.71;40.07;102153.03;5095569;27;45922;-62
2023/10/07 06:51:03;;;;;;;;;9.25;9.25;;;;;24.69;39.86;102156.91;5087851;27;45525;-62
2023/10/07 06:53:30;;;;;;;;;8.75;8.75;;;;;24.77;39.81;102165.34;5079414;27;45354;-63
2023/10/07 06:55:58;;;;;;;;;12.50;12.50;;;;;24.74;39.62;102144.56;5081372;28;45480;-63
2023/10/07 06:58:25;;;;;;;;;9.75;8.75;;;;;24.83;39.48;102157.50;5081525;28;45831;-62
2023/10/07 07:00:56;;;;;;;;;17.50;17.50;;;;;24.92;39.50;102157.78;5081511;27;45226;-61
2023/10/07 07:03:25;;;;;;;;;14.75;14.75;;;;;24.94;39.40;102155.75;5081779;28;45519;-63
2023/10/07 07:05:50;;;;;;;;;14.25;13.25;;;;;24.96;39.33;102146.41;5081603;28;45374;-63
2023/10/07 07:08:15;;;;;;;;;33.25;31.00;;;;;24.96;39.53;102159.25;5081818;28;45435;-62
2023/10/07 07:10:41;;;;;;;;;18.25;17.25;;;;;24.98;39.23;102143.53;5081042;28;50430;-62
2023/10/07 07:13:15;;;;;;;;;10.75;10.25;;;;;24.99;39.26;102145.28;5081837;28;45302;-62
2023/10/07 07:15:47;;;;;;;;;14.25;12.75;;;;;25.04;39.12;102148.50;5081224;27;45541;-62
2023/10/07 07:21:00;;;;;;;;;11.00;9.75;;;;;24.96;39.59;102153.75;5081447;27;45985;-63
2023/10/07 07:23:34;;;;;;;;;8.75;8.00;;;;;25.00;39.11;102156.13;5081670;27;45374;-61
2023/10/07 07:28:35;;;;;;;;;12.50;11.50;;;;;25.08;39.57;102158.22;5081686;27;45319;-61
2023/10/07 07:31:02;;;;;;;;;11.75;10.50;;;;;25.12;39.52;102157.81;5081429;27;46088;-62
2023/10/07 07:33:37;;;;;;;;;14.25;12.75;;;;;25.13;39.22;102154.06;5081303;27;45391;-62
2023/10/07 07:36:56;;;;;;;;;10.00;9.00;;;;;25.27;39.10;102180.34;5081560;27;45254;-62
2023/10/07 07:38:51;;;;;;;;;10.00;10.00;;;;;25.30;39.51;102177.34;5070343;28;45463;-62
2023/10/07 07:41:37;;;;;;;;;12.00;12.00;;;;;25.36;39.34;102179.56;5080691;27;46311;-62
2023/10/07 07:44:10;;;;;;;;;13.00;10.00;;;;;25.35;39.47;102180.56;5069611;28;45262;-63
2023/10/07 07:46:52;;;;;;;;;12.00;11.25;;;;;25.46;39.31;102187.88;5081005;27;45307;-63
2023/10/07 07:49:19;;;;;;;;;11.75;11.75;;;;;25.49;39.50;102179.38;5080671;27;46208;-62
2023/10/07 07:51:47;;;;;;;;;12.00;8.75;;;;;25.53;38.89;102189.97;5080860;27;46108;-63
2023/10/07 07:54:14;;;;;;;;;12.25;12.25;;;;;25.48;38.82;102172.16;5080494;27;45239;-62
2023/10/07 07:56:42;;;;;;;;;10.25;10.25;;;;;25.67;38.89;102196.19;5080842;27;45438;-63
2023/10/07 07:59:13;;;;;;;;;15.00;12.00;;;;;25.68;38.69;102195.19;5080975;27;45482;-62
2023/10/07 08:01:45;;;;;;;;;11.75;11.75;;;;;25.83;38.58;102204.84;5081076;27;45260;-62
2023/10/07 08:04:37;;;;;;;;;11.50;11.50;;;;;25.83;38.69;102202.09;5079824;27;45320;-62
2023/10/07 08:07:06;;;;;;;;;13.00;13.00;;;;;25.88;38.33;102199.78;5068691;28;45439;-64
2023/10/07 08:09:36;;;;;;;;;13.00;12.50;;;;;25.90;38.35;102204.16;5079068;28;46035;-62
2023/10/07 08:12:09;;;;;;;;;9.00;9.00;;;;;26.00;38.60;102217.97;5080370;27;45281;-61
2023/10/07 08:14:38;;;;;;;;;14.75;11.75;;;;;26.02;38.19;102223.34;5080751;27;45336;-62
2023/10/07 08:17:08;;;;;;;;;14.75;13.75;;;;;26.03;38.07;102223.19;5080945;27;45373;-64
2023/10/07 08:19:35;;;;;;;;;13.25;12.25;;;;;26.05;38.08;102226.66;5080453;28;45446;-62
2023/10/07 08:22:02;;;;;;;;;16.50;11.25;;;;;26.07;38.36;102234.78;5080465;27;46354;-63
2023/10/07 08:24:30;;;;;;;;;14.75;11.25;;;;;26.16;37.69;102234.84;5080651;27;45367;-60
2023/10/07 08:26:59;;;;;;;;;15.00;13.75;;;;;26.29;38.13;102237.41;5079102;27;45768;-59
2023/10/07 08:29:40;;;;;;;;;14.25;12.50;;;;;26.29;37.80;102243.78;5080338;28;45223;-60
2023/10/07 08:32:11;;;;;;;;;9.75;9.75;;;;;26.39;37.81;102227.34;5080374;27;45623;-60
2023/10/07 08:34:37;;;;;;;;;12.50;11.75;;;;;26.38;37.63;102229.22;5080554;27;45247;-59
2023/10/07 08:37:03;;;;;;;;;10.25;10.25;;;;;26.50;37.77;102235.50;5078994;27;45439;-60
2023/10/07 08:39:29;;;;;;;;;16.50;12.25;;;;;26.52;37.89;102235.38;5080227;28;45484;-60
2023/10/07 08:42:12;;;;;;;;;13.00;11.50;;;;;26.56;37.88;102237.69;5079745;27;46271;-60
2023/10/07 08:44:38;;;;;;;;;14.00;14.00;;;;;26.65;37.79;102244.25;5079501;27;45246;-60
2023/10/07 08:47:05;;;;;;;;;14.00;14.00;;;;;26.61;37.65;102245.56;5080320;28;45401;-61
2023/10/07 08:49:35;;;;;;;;;17.25;14.25;;;;;26.61;37.30;102246.44;5079893;28;45933;-60
2023/10/07 08:52:08;;;;;;;;;9.00;9.00;;;;;26.69;37.46;102248.47;5080308;27;45311;-60
2023/10/07 08:54:37;;;;;;;;;15.50;11.50;;;;;26.74;38.02;102246.19;5079108;27;45230;-61
2023/10/07 08:57:16;;;;;;;;;12.50;11.75;;;;;26.78;37.19;102242.16;5079147;27;45602;-59
2023/10/07 08:59:49;;;;;;;;;12.75;11.00;;;;;26.84;37.62;102247.09;5077301;28;45496;-61
2023/10/07 09:02:26;;;;;;;;;16.25;13.00;;;;;26.88;37.67;102247.69;5077218;28;46863;-59
2023/10/07 09:04:55;;;;;;;;;13.00;12.75;;;;;26.98;37.70;102245.84;5079158;27;45416;-59
2023/10/07 09:07:22;;;;;;;;;11.75;11.75;;;;;27.11;37.08;102243.72;5079616;28;45385;-60
2023/10/07 09:09:48;;;;;;;;;14.25;11.25;;;;;27.28;37.56;102250.44;5066524;28;45449;-60
2023/10/07 09:12:31;;;;;;;;;13.75;12.00;;;;;27.30;36.80;102253.91;5079303;27;45367;-59
2023/10/07 09:15:12;;;;;;;;;12.25;11.00;;;;;27.29;36.73;102250.28;5079437;28;45336;-60
2023/10/07 09:17:41;;;;;;;;;13.25;10.25;;;;;27.31;37.33;102236.34;5078988;27;45282;-60
2023/10/07 09:20:17;;;;;;;;;11.75;10.50;;;;;27.46;37.11;102246.84;5079470;27;45457;-60
2023/10/07 09:22:45;;;;;;;;;13.50;12.00;;;;;27.55;36.87;102245.13;5079751;28;45335;-59
2023/10/07 09:25:17;;;;;;;;;9.75;9.75;;;;;27.65;37.09;102243.22;5078347;27;45389;-59
2023/10/07 09:27:54;;;;;;;;;12.00;12.00;;;;;27.74;36.81;102249.75;5079090;27;45406;-60
2023/10/07 09:30:35;;;;;;;;;10.00;8.25;;;;;27.82;36.58;102241.63;5075400;28;45827;-60
2023/10/07 09:33:06;;;;;;;;;9.75;9.75;;;;;27.80;36.62;102243.69;5077853;27;45390;-59
2023/10/07 09:35:31;;;;;;;;;14.50;11.25;;;;;27.83;36.58;102241.47;5079308;27;45373;-59
2023/10/07 09:37:59;;;;;;;;;11.75;9.25;;;;;27.97;36.32;102242.94;5076642;28;45999;-59
2023/10/07 09:41:11;;;;;;;;;13.25;8.75;;;;;27.99;35.91;102249.16;5077570;28;45524;-60
2023/10/07 09:43:29;;;;;;;;;8.00;6.75;;;;;28.00;35.98;102247.25;5078381;28;45480;-60
2023/10/07 09:45:58;;;;;;;;;8.25;8.25;;;;;28.00;36.02;102239.00;5078704;27;45310;-59
2023/10/07 09:48:29;;;;;;;;;8.75;7.50;;;;;28.02;36.38;102243.34;5078195;27;45527;-58
2023/10/07 09:50:58;;;;;;;;;8.25;8.00;;;;;28.00;36.31;102250.00;5079174;27;45336;-59
2023/10/07 09:53:30;;;;;;;;;7.25;7.25;;;;;27.99;36.29;102256.53;5078002;27;46155;-59
2023/10/07 09:56:29;;;;;;;;;8.50;8.50;;;;;28.02;35.97;102254.38;5071844;27;45334;-60
2023/10/07 09:59:22;;;;;;;;;7.50;5.50;;;;;28.00;36.27;102259.16;5069256;28;45519;-59
2023/10/07 10:02:32;;;;;;;;;6.25;6.25;;;;;28.10;35.76;102250.88;5066318;28;45189;-60
2023/10/07 10:05:49;;;;;;;;;6.00;6.00;;;;;28.11;35.82;102259.00;5066146;28;45378;-59
2023/10/07 10:08:36;;;;;;;;;7.00;7.00;;;;;28.15;35.66;102262.34;5033412;28;45490;-60
2023/10/07 10:11:09;;;;;;;;;5.25;4.50;;;;;28.18;36.18;102248.28;5033745;28;45384;-59
2023/10/07 10:16:18;;;;;;;;;5.75;5.75;;;;;28.24;35.34;102259.59;5078416;28;46188;-60
2023/10/07 10:18:50;;;;;;;;;4.25;4.25;;;;;28.45;35.63;102264.03;5078850;27;45283;-59
2023/10/07 10:21:22;;;;;;;;;6.00;6.00;;;;;28.48;34.88;102259.09;5078486;27;45449;-60
2023/10/07 10:23:51;;;;;;;;;5.00;5.00;;;;;28.49;34.99;102263.63;5076676;27;45334;-60
2023/10/07 10:26:22;;;;;;;;;6.00;4.50;;;;;28.58;35.19;102253.56;5068448;28;45801;-60
2023/10/07 10:29:15;;;;;;;;;6.00;4.25;;;;;28.63;35.18;102253.09;5081723;27;45342;-60
2023/10/07 10:31:49;;;;;;;;;8.50;6.75;;;;;28.76;34.87;102251.75;5079863;28;45260;-58
2023/10/07 10:34:15;;;;;;;;;6.75;4.50;;;;;28.79;34.07;102254.22;5078735;28;45528;-59
2023/10/07 10:36:48;;;;;;;;;4.50;4.50;;;;;28.93;34.81;102255.59;5081484;27;46137;-60
2023/10/07 10:39:31;;;;;;;;;4.00;4.00;;;;;29.08;34.41;102251.31;5079223;28;45291;-59
2023/10/07 10:42:01;;;;;;;;;5.25;5.25;;;;;29.12;34.28;102249.09;5079429;28;45453;-59
2023/10/07 10:44:26;;;;;;;;;5.75;4.25;;;;;29.21;33.39;102243.50;5080169;28;45599;-58
2023/10/07 10:46:52;;;;;;;;;3.00;2.75;;;;;29.30;33.82;102247.22;5081061;27;46069;-61
2023/10/07 10:49:20;;;;;;;;;3.25;3.25;;;;;29.34;33.62;102241.25;5077525;27;45468;-59
2023/10/07 10:51:48;;;;;;;;;6.50;5.00;;;;;29.48;34.19;102231.56;5080245;28;45476;-58
2023/10/07 10:54:20;;;;;;;;;3.50;3.50;;;;;29.66;33.27;102239.88;5080493;27;45537;-59
2023/10/07 10:56:50;;;;;;;;;4.25;4.25;;;;;29.87;32.67;102240.38;5080353;27;45386;-58
2023/10/07 10:59:18;;;;;;;;;2.00;2.00;;;;;30.18;33.14;102239.97;5080887;27;45342;-61
2023/10/07 11:01:45;;;;;;;;;3.75;3.75;;;;;30.37;32.90;102243.38;5081338;27;45369;-60
2023/10/07 11:04:15;;;;;;;;;2.75;2.75;;;;;30.84;31.61;102234.66;5081256;27;45535;-59
2023/10/07 11:06:40;;;;;;;;;4.50;4.50;;;;;31.24;31.12;102238.63;5081078;27;47034;-60
2023/10/07 11:09:06;;;;;;;;;6.75;6.75;;;;;31.61;30.63;102233.53;5081477;27;45348;-61
2023/10/07 11:11:35;;;;;;;;;4.50;4.50;;;;;32.00;30.38;102239.25;5080538;27;45464;-61
2023/10/07 11:14:07;;;;;;;;;4.00;4.00;;;;;32.54;29.62;102234.00;5080762;27;45332;-62
2023/10/07 11:16:43;;;;;;;;;9.25;5.25;;;;;33.09;28.65;102227.56;5081508;27;45333;-61
2023/10/07 11:19:12;;;;;;;;;5.25;4.25;;;;;33.25;28.30;102224.72;5081286;27;45385;-61
2023/10/07 11:21:41;;;;;;;;;4.75;4.00;;;;;33.83;27.66;102228.84;5081608;27;45414;-58
2023/10/07 11:24:07;;;;;;;;;4.25;3.00;;;;;34.16;26.61;102217.22;5080987;27;45911;-63
2023/10/07 11:26:33;;;;;;;;;4.00;2.00;;;;;34.45;26.50;102218.34;5080133;27;45314;-61
2023/10/07 11:29:00;;;;;;;;;5.25;5.00;;;;;34.63;25.83;102207.63;5080877;27;45355;-59
2023/10/07 11:31:30;;;;;;;;;3.25;3.25;;;;;35.37;25.73;102211.22;5081335;27;45294;-58
2023/10/07 11:33:56;;;;;;;;;3.00;3.00;;;;;35.84;23.90;102210.63;5081100;27;45423;-58
2023/10/07 11:36:23;;;;;;;;;6.25;6.00;;;;;35.86;23.86;102208.50;5080463;27;45280;-61
2023/10/07 11:38:50;;;;;;;;;3.50;3.50;;;;;37.03;23.90;102203.03;5080968;27;45436;-59
2023/10/07 11:41:16;;;;;;;;;2.50;2.50;;;;;37.57;22.44;102200.19;5080671;27;45364;-60
2023/10/07 11:43:47;;;;;;;;;6.00;4.25;;;;;37.93;21.84;102201.78;5080649;27;45447;-66
2023/10/07 11:46:13;;;;;;;;;3.50;3.00;;;;;38.55;21.54;102198.47;5077659;28;46398;-60
2023/10/07 11:48:44;;;;;;;;;3.25;3.25;;;;;39.63;20.21;102196.69;5080173;27;45534;-60
2023/10/07 11:51:10;;;;;;;;;3.25;3.25;;;;;40.10;19.63;102200.81;5077526;28;45196;-60
2023/10/07 11:53:35;;;;;;;;;4.50;3.25;;;;;40.97;18.96;102201.63;5080398;27;45262;-61
2023/10/07 11:56:05;;;;;;;;;2.00;2.00;;;;;40.94;19.07;102196.47;5079976;27;46307;-60
2023/10/07 11:58:32;;;;;;;;;3.00;3.00;;;;;41.36;18.67;102192.63;5080068;27;45600;-61
2023/10/07 12:00:57;;;;;;;;;1.75;1.75;;;;;41.89;18.85;102191.78;5079127;27;45439;-59
2023/10/07 12:03:25;;;;;;;;;4.50;3.00;;;;;42.00;17.62;102192.94;5079912;28;45314;-61
2023/10/07 12:05:50;;;;;;;;;3.25;3.25;;;;;42.06;17.46;102201.28;5080188;28;45488;-60
2023/10/07 12:08:16;;;;;;;;;2.00;2.00;;;;;42.40;17.45;102195.91;5080176;27;45366;-60
2023/10/07 12:10:41;;;;;;;;;4.00;3.00;;;;;42.06;17.49;102206.91;5080431;27;45398;-59
2023/10/07 12:13:07;;;;;;;;;4.00;2.50;;;;;41.87;17.65;102197.66;5080570;27;53451;-58
2023/10/07 12:15:33;;;;;;;;;4.00;3.00;;;;;42.33;18.40;102198.81;5080568;27;45475;-55
2023/10/07 12:18:02;;;;;;;;;5.00;3.50;;;;;42.70;17.66;102199.41;5080699;27;45423;-61
2023/10/07 12:20:28;;;;;;;;;2.00;2.00;;;;;42.55;17.59;102193.41;5080200;27;45312;-59
2023/10/07 12:22:54;;;;;;;;;2.00;2.00;;;;;42.71;18.83;102183.34;5079656;27;45402;-60
2023/10/07 12:25:19;;;;;;;;;3.00;3.00;;;;;42.94;17.43;102194.59;5080027;27;45340;-56
2023/10/07 12:27:47;;;;;;;;;4.75;3.00;;;;;42.43;17.98;102185.00;5080511;27;45331;-59
2023/10/07 12:30:14;;;;;;;;;5.25;3.25;;;;;42.22;17.67;102206.16;5079459;27;45318;-48
2023/10/07 12:32:42;;;;;;;;;5.50;4.00;;;;;42.51;18.45;102197.84;5080526;27;45394;-47
2023/10/07 12:35:10;;;;;;;;;0.75;0.75;;;;;42.54;17.88;102201.00;5079584;27;45648;-50
2023/10/07 12:37:40;;;;;;;;;2.00;2.00;;;;;42.03;18.62;102204.56;5079995;27;45352;-48
2023/10/07 12:40:11;;;;;;;;;2.25;2.00;;;;;41.41;18.01;102206.88;5075005;28;46424;-50
2023/10/07 12:42:41;;;;;;;;;4.75;4.75;;;;;40.71;19.63;102205.63;5076998;28;45407;-48
2023/10/07 12:45:08;;;;;;;;;2.00;2.00;;;;;40.21;19.86;102202.03;5079593;27;45440;-51
2023/10/07 12:47:34;;;;;;;;;4.25;3.00;;;;;39.78;19.95;102202.81;5079950;27;45390;-49
2023/10/07 12:50:16;;;;;;;;;2.75;1.50;;;;;39.18;20.45;102199.53;5069878;27;45277;-51
2023/10/07 12:52:42;;;;;;;;;4.00;3.50;;;;;38.87;21.52;102196.66;5080065;27;45313;-50
2023/10/07 12:55:07;;;;;;;;;4.00;4.00;;;;;38.33;21.40;102192.25;5079501;28;54626;-52
2023/10/07 12:57:33;;;;;;;;;5.50;4.00;;;;;38.10;22.23;102194.69;5079776;28;45331;-56
2023/10/07 12:59:58;;;;;;;;;3.50;3.50;;;;;37.84;21.80;102195.53;5079241;28;47116;-64
2023/10/07 13:02:28;;;;;;;;;10.25;7.25;;;;;37.78;23.01;102193.56;5079478;27;45539;-60
2023/10/07 13:04:55;;;;;;;;;6.00;5.00;;;;;37.70;22.45;102189.03;5079716;28;46093;-59
2023/10/07 13:07:20;;;;;;;;;5.75;5.25;;;;;37.30;22.07;102193.69;5079278;27;45412;-60
2023/10/07 13:09:46;;;;;;;;;3.50;3.50;;;;;37.31;22.73;102188.97;5079594;28;45388;-59
2023/10/07 13:12:13;;;;;;;;;5.00;4.00;;;;;37.52;22.60;102183.16;5079553;27;45455;-59
2023/10/07 13:14:41;;;;;;;;;2.75;2.75;;;;;37.36;22.70;102183.59;5079539;28;45935;-53
2023/10/07 13:17:07;;;;;;;;;5.00;3.00;;;;;37.59;22.61;102174.81;5079135;27;45423;-52
2023/10/07 13:19:36;;;;;;;;;5.50;2.75;;;;;37.69;22.62;102178.91;5079752;27;45374;-55
2023/10/07 13:22:05;;;;;;;;;3.00;2.00;;;;;37.93;22.31;102177.44;5079506;27;45459;-53
2023/10/07 13:24:31;;;;;;;;;5.00;3.50;;;;;38.15;22.27;102180.88;5079468;27;46017;-51
2023/10/07 13:26:57;;;;;;;;;3.00;3.00;;;;;38.53;21.82;102167.88;5078669;27;45354;-50
2023/10/07 13:29:23;;;;;;;;;3.00;3.00;;;;;38.84;21.46;102169.03;5079459;27;45286;-67
2023/10/07 13:31:48;;;;;;;;;5.00;4.00;;;;;39.13;21.01;102165.66;5079243;27;45185;-55
2023/10/07 13:34:15;;;;;;;;;3.25;3.25;;;;;39.34;20.68;102173.75;5079044;27;46399;-62
2023/10/07 13:36:42;;;;;;;;;4.75;3.00;;;;;39.49;20.93;102162.22;5078954;27;45304;-62
2023/10/07 13:39:20;;;;;;;;;2.75;2.25;;;;;39.75;20.33;102166.75;5079431;27;45273;-62
2023/10/07 13:41:47;;;;;;;;;3.75;2.25;;;;;40.18;20.13;102163.13;5079021;27;45455;-64
2023/10/07 13:44:16;;;;;;;;;2.50;2.50;;;;;40.75;20.28;102159.91;5078754;27;46324;-65
2023/10/07 13:46:43;;;;;;;;;3.00;3.00;;;;;41.35;19.22;102154.31;5078945;27;45649;-65
2023/10/07 13:49:14;;;;;;;;;5.25;3.75;;;;;41.57;18.28;102146.22;5072784;27;45413;-64
2023/10/07 13:51:43;;;;;;;;;3.75;2.25;;;;;41.56;18.77;102150.13;5076866;28;45332;-62
2023/10/07 13:57:01;;;;;;;;;4.50;4.50;;;;;41.92;18.72;102149.91;5078916;28;45355;-59
2023/10/07 13:59:28;;;;;;;;;5.25;4.25;;;;;42.06;18.45;102139.28;5079060;27;45544;-64
2023/10/07 14:01:55;;;;;;;;;3.25;3.25;;;;;42.04;17.84;102138.66;5080878;27;45331;-59
2023/10/07 14:04:25;;;;;;;;;3.25;3.25;;;;;41.70;17.76;102140.31;5082319;27;47423;-60
2023/10/07 14:06:54;;;;;;;;;2.00;2.00;;;;;41.32;18.60;102137.91;5081523;27;45420;-58
2023/10/07 14:09:26;;;;;;;;;2.00;2.00;;;;;41.17;19.12;102138.34;5082410;27;45145;-61
2023/10/07 14:11:54;;;;;;;;;4.75;2.25;;;;;41.39;18.63;102132.19;5082190;28;45374;-61
2023/10/07 14:14:19;;;;;;;;;2.00;2.00;;;;;41.44;19.14;102129.47;5081600;27;45370;-58
2023/10/07 14:16:44;;;;;;;;;3.25;2.50;;;;;41.41;17.88;102133.66;5082362;27;45256;-59
2023/10/07 14:19:10;;;;;;;;;2.00;2.00;;;;;41.11;18.45;102132.81;5082653;27;45333;-63
2023/10/07 14:21:35;;;;;;;;;4.75;2.75;;;;;40.63;18.43;102138.44;5082153;28;59353;-62
2023/10/07 14:24:04;;;;;;;;;1.25;1.25;;;;;40.27;19.45;102136.47;5082179;27;46968;-65
2023/10/07 14:26:34;;;;;;;;;3.25;3.25;;;;;39.74;19.68;102128.53;5082357;27;45440;-60
2023/10/07 14:29:07;;;;;;;;;2.00;2.00;;;;;40.27;19.72;102134.53;5082351;27;45270;-60
2023/10/07 14:31:34;;;;;;;;;3.00;2.00;;;;;40.61;19.21;102132.16;5067155;28;46961;-60
2023/10/07 14:34:01;;;;;;;;;4.25;3.00;;;;;40.99;19.30;102115.88;5068785;28;45277;-58
2023/10/07 14:36:26;;;;;;;;;4.50;3.25;;;;;41.72;18.94;102120.38;5082311;28;45264;-61
2023/10/07 14:38:54;;;;;;;;;3.00;2.50;;;;;41.77;18.24;102112.06;5082370;27;45306;-57
2023/10/07 14:41:19;;;;;;;;;3.75;2.25;;;;;42.02;17.66;102115.53;5081738;27;45935;-59
2023/10/07 14:43:44;;;;;;;;;4.00;4.00;;;;;42.26;18.40;102110.72;5081867;27;45465;-69
2023/10/07 14:46:13;;;;;;;;;3.75;2.75;;;;;42.52;17.52;102113.00;5081594;27;51421;-67
2023/10/07 14:48:45;;;;;;;;;2.75;2.25;;;;;42.36;18.21;102101.66;5081267;27;45320;-69
2023/10/07 14:51:11;;;;;;;;;4.25;2.00;;;;;42.09;18.35;102112.56;5081506;27;45833;-66
2023/10/07 14:53:37;;;;;;;;;4.25;2.75;;;;;42.37;17.48;102111.78;5081972;27;46188;-63
2023/10/07 14:56:09;;;;;;;;;4.25;3.00;;;;;42.29;18.44;102108.22;5081440;27;45299;-67
2023/10/07 14:58:36;;;;;;;;;3.00;2.25;;;;;42.38;17.38;102108.72;5081899;27;45418;-67
2023/10/07 15:01:03;;;;;;;;;3.75;3.75;;;;;42.18;17.74;102097.84;5081607;27;45326;-63
2023/10/07 15:03:28;;;;;;;;;1.75;1.75;;;;;42.20;18.43;102106.03;5081011;27;46215;-60
2023/10/07 15:05:57;;;;;;;;;4.75;3.00;;;;;42.10;18.43;102103.88;5081790;28;45363;-60
2023/10/07 15:08:23;;;;;;;;;2.50;2.25;;;;;42.01;18.88;102104.50;5081155;27;45387;-65
2023/10/07 15:10:49;;;;;;;;;3.50;2.50;;;;;42.08;18.34;102105.22;5081158;27;45413;-54
2023/10/07 15:13:15;;;;;;;;;3.75;3.00;;;;;41.88;18.17;102097.97;5080716;27;45484;-58
2023/10/07 15:15:44;;;;;;;;;1.00;0.25;;;;;41.72;17.72;102103.47;5081621;28;45440;-63
2023/10/07 15:18:11;;;;;;;;;2.00;2.00;;;;;41.69;18.89;102102.00;5081835;27;45394;-55
2023/10/07 15:20:38;;;;;;;;;2.75;2.75;;;;;41.77;18.47;102107.25;5081675;27;45473;-53
2023/10/07 15:23:05;;;;;;;;;3.00;3.00;;;;;41.32;18.86;102097.66;5081603;27;46780;-53
2023/10/07 15:25:33;;;;;;;;;3.25;3.25;;;;;41.29;18.36;102092.50;5081095;27;45390;-53
2023/10/07 15:27:58;;;;;;;;;4.25;2.50;;;;;41.38;19.33;102100.34;5081403;27;45539;-52
2023/10/07 15:30:24;;;;;;;;;4.25;4.25;;;;;41.46;19.08;102097.19;5081326;27;45296;-53
2023/10/07 15:32:51;;;;;;;;;4.00;3.25;;;;;41.41;18.20;102097.06;5081253;27;45938;-53
2023/10/07 15:35:17;;;;;;;;;2.00;2.00;;;;;41.04;18.68;102106.72;5080895;27;45339;-52
2023/10/07 15:37:43;;;;;;;;;3.00;3.00;;;;;41.17;18.92;102100.94;5081214;27;45372;-56
2023/10/07 15:40:09;;;;;;;;;1.50;1.50;;;;;41.10;19.06;102100.16;5080697;27;45296;-57
2023/10/07 15:42:37;;;;;;;;;4.75;3.00;;;;;40.93;19.29;102093.47;5081172;27;45735;-51
2023/10/07 15:45:03;;;;;;;;;2.00;2.00;;;;;40.33;19.11;102105.47;5080587;27;55564;-51
2023/10/07 15:47:30;;;;;;;;;2.75;2.75;;;;;40.26;19.55;102107.50;5080965;27;45382;-51
2023/10/07 15:49:55;;;;;;;;;4.50;2.75;;;;;39.84;19.48;102106.44;5080637;27;46082;-48
2023/10/07 15:52:20;;;;;;;;;10.50;4.00;;;;;39.62;20.26;102111.59;5080593;27;55160;-60
2023/10/07 15:54:47;;;;;;;;;2.00;2.00;;;;;39.43;20.27;102109.81;5080917;27;45387;-64
2023/10/07 15:57:12;;;;;;;;;6.50;3.00;;;;;39.41;20.57;102111.13;5081008;27;45397;-70
2023/10/07 15:59:40;;;;;;;;;7.00;2.25;;;;;39.12;21.37;102113.47;5080792;27;45354;-64
2023/10/07 16:02:09;;;;;;;;;3.25;3.25;;;;;39.01;20.73;102110.53;5081070;27;46366;-64
2023/10/07 16:04:36;;;;;;;;;3.50;3.00;;;;;38.82;21.03;102106.72;5080693;27;45250;-66
2023/10/07 16:07:04;;;;;;;;;4.25;4.25;;;;;38.48;21.30;102110.72;5080884;27;45347;-60
2023/10/07 16:09:32;;;;;;;;;3.75;3.75;;;;;38.23;21.70;102107.78;5080229;28;45363;-66
2023/10/07 16:11:58;;;;;;;;;2.75;2.75;;;;;37.72;22.12;102116.91;5072304;28;47769;-61
2023/10/07 16:14:23;;;;;;;;;4.00;2.50;;;;;37.36;22.32;102116.44;5080018;27;45410;-61
2023/10/07 16:16:50;;;;;;;;;3.25;3.25;;;;;37.26;23.03;102110.44;5079899;28;45339;-61
2023/10/07 16:19:18;;;;;;;;;6.00;4.00;;;;;37.32;22.18;102120.75;5080143;27;45325;-61
2023/10/07 16:21:44;;;;;;;;;4.50;4.00;;;;;37.31;23.10;102119.03;5079958;27;47196;-60
2023/10/07 16:24:11;;;;;;;;;4.75;3.50;;;;;37.22;22.65;102115.56;5079113;28;45341;-60
2023/10/07 16:26:38;;;;;;;;;4.25;4.00;;;;;37.06;23.28;102111.22;5076576;28;45586;-62
2023/10/07 16:29:04;;;;;;;;;3.25;2.50;;;;;36.41;23.34;102116.56;5079778;27;46454;-62
2023/10/07 16:31:30;;;;;;;;;3.75;3.75;;;;;36.26;23.55;102120.31;5079815;27;45679;-62
2023/10/07 16:33:55;;;;;;;;;3.75;3.75;;;;;36.14;24.28;102118.31;5079435;28;45327;-67
2023/10/07 16:36:20;;;;;;;;;4.00;4.00;;;;;36.12;24.08;102117.63;5080208;27;45318;-61
2023/10/07 16:38:46;;;;;;;;;3.50;3.50;;;;;36.19;23.80;102124.13;5068459;28;45844;-68
2023/10/07 16:41:16;;;;;;;;;4.50;3.50;;;;;36.18;24.05;102134.41;5072600;28;45303;-72
2023/10/07 16:43:43;;;;;;;;;4.75;4.25;;;;;35.93;24.26;102130.38;5078870;28;45364;-68
2023/10/07 16:46:09;;;;;;;;;4.50;4.50;;;;;35.79;24.53;102125.78;5080231;28;45304;-66
2023/10/07 16:48:39;;;;;;;;;3.50;3.50;;;;;35.71;24.66;102140.72;5061061;28;46794;-68
2023/10/07 16:51:07;;;;;;;;;4.25;4.25;;;;;35.66;24.88;102135.72;5079777;27;46200;-67
2023/10/07 16:53:35;;;;;;;;;4.00;4.00;;;;;35.64;25.21;102139.81;5079958;27;45338;-67
2023/10/07 16:56:03;;;;;;;;;4.75;4.00;;;;;35.54;24.87;102142.06;5079987;28;45353;-69
2023/10/07 16:58:29;;;;;;;;;4.00;4.00;;;;;35.53;25.32;102141.22;5080082;27;45268;-58
2023/10/07 17:00:55;;;;;;;;;6.50;5.75;;;;;35.44;25.15;102141.53;5080054;27;46163;-64
2023/10/07 17:03:21;;;;;;;;;3.75;3.75;;;;;35.37;25.11;102135.91;5080046;27;45419;-63
2023/10/07 17:05:48;;;;;;;;;2.25;2.25;;;;;35.25;25.66;102143.94;5079938;27;45315;-63
2023/10/07 17:08:14;;;;;;;;;6.00;4.00;;;;;35.10;25.75;102126.38;5079026;27;45459;-63
2023/10/07 17:10:41;;;;;;;;;5.25;4.00;;;;;35.25;25.33;102132.78;5079152;27;46456;-64
2023/10/07 17:13:09;;;;;;;;;2.00;2.00;;;;;34.76;25.57;102129.84;5079729;27;45398;-64
2023/10/07 17:15:38;;;;;;;;;7.25;6.00;;;;;34.51;26.09;102136.78;5078000;27;45420;-63
2023/10/07 17:18:05;;;;;;;;;5.25;4.75;;;;;34.50;26.54;102132.25;5079121;28;45740;-64
2023/10/07 17:20:39;;;;;;;;;5.00;2.75;;;;;34.43;26.91;102145.25;5079615;27;46071;-63
2023/10/07 17:23:06;;;;;;;;;7.75;6.00;;;;;34.35;26.40;102143.44;5079375;27;45520;-64
2023/10/07 17:25:32;;;;;;;;;6.25;5.00;;;;;34.43;26.60;102137.75;5077072;28;45505;-64
2023/10/07 17:28:00;;;;;;;;;7.50;7.50;;;;;34.34;26.68;102143.59;5077741;27;45493;-63
2023/10/07 17:30:32;;;;;;;;;7.50;7.50;;;;;34.15;26.83;102140.31;5077963;27;46374;-63
